createdAt,value
2022-12-28T00:01:19.141Z,9.77
2022-12-28T00:03:46.136Z,13.55
2022-12-28T00:06:13.293Z,11.17
2022-12-28T00:08:40.642Z,9.95
2022-12-28T00:11:20.353Z,10.18
2022-12-28T00:13:55.412Z,10.02
2022-12-28T00:16:26.153Z,10.32
2022-12-28T00:18:53.466Z,11.53
2022-12-28T00:21:20.117Z,10.00
2022-12-28T00:23:49.863Z,10.70
2022-12-28T00:26:16.565Z,10.93
2022-12-28T00:28:42.989Z,13.85
2022-12-28T00:31:09.439Z,10.57
2022-12-28T00:33:35.988Z,9.60
2022-12-28T00:36:02.497Z,11.13
2022-12-28T00:38:31.637Z,13.35
2022-12-28T00:41:00.778Z,13.18
2022-12-28T00:43:27.121Z,11.97
2022-12-28T00:45:53.658Z,11.85
2022-12-28T00:48:20.179Z,13.23
2022-12-28T00:50:46.725Z,11.23
2022-12-28T00:53:13.849Z,14.32
2022-12-28T00:55:40.349Z,11.80
2022-12-28T00:58:07.424Z,14.00
2022-12-28T01:00:35.610Z,11.35
2022-12-28T01:03:02.172Z,13.00
2022-12-28T01:05:28.914Z,9.55
2022-12-28T01:07:55.303Z,10.43
2022-12-28T01:10:21.648Z,12.55
2022-12-28T01:12:48.001Z,11.23
2022-12-28T01:15:14.431Z,13.18
2022-12-28T01:17:40.777Z,12.15
2022-12-28T01:20:08.011Z,12.37
2022-12-28T01:22:34.411Z,11.95
2022-12-28T01:25:00.789Z,10.75
2022-12-28T01:27:27.149Z,12.23
2022-12-28T01:29:53.517Z,13.32
2022-12-28T01:32:19.878Z,11.10
2022-12-28T01:34:46.273Z,10.18
2022-12-28T01:37:12.631Z,13.07
2022-12-28T01:39:39.013Z,11.40
2022-12-28T01:42:05.512Z,11.77
2022-12-28T01:44:42.709Z,14.20
2022-12-28T01:47:15.305Z,11.75
2022-12-28T01:49:57.235Z,11.95
2022-12-28T01:52:32.251Z,9.38
2022-12-28T01:55:06.872Z,11.93
2022-12-28T01:57:39.168Z,12.93
2022-12-28T02:00:10.891Z,11.52
2022-12-28T02:02:38.459Z,12.20
2022-12-28T02:08:08.054Z,11.15
2022-12-28T02:10:43.893Z,14.23
2022-12-28T02:13:14.181Z,13.00
2022-12-28T02:15:40.605Z,10.40
2022-12-28T02:18:07.041Z,12.23
2022-12-28T02:20:59.793Z,11.68
2022-12-28T02:24:03.886Z,10.70
2022-12-28T02:26:45.411Z,11.43
2022-12-28T02:29:29.950Z,13.02
2022-12-28T02:32:06.395Z,11.15
2022-12-28T02:34:41.830Z,13.02
2022-12-28T02:37:23.477Z,11.27
2022-12-28T02:39:58.603Z,13.27
2022-12-28T02:42:26.432Z,12.90
2022-12-28T02:45:11.223Z,13.82
2022-12-28T02:48:02.040Z,15.52
2022-12-28T02:50:42.584Z,11.93
2022-12-28T02:53:20.850Z,13.35
2022-12-28T02:56:11.982Z,12.95
2022-12-28T02:59:13.737Z,13.25
2022-12-28T03:02:24.248Z,12.15
2022-12-28T03:05:47.867Z,12.37
2022-12-28T03:08:20.863Z,12.60
2022-12-28T03:11:10.920Z,13.27
2022-12-28T03:13:50.763Z,11.57
2022-12-28T03:16:27.254Z,12.50
2022-12-28T03:19:20.512Z,13.17
2022-12-28T03:22:07.433Z,12.82
2022-12-28T03:24:55.861Z,12.85
2022-12-28T03:27:41.095Z,12.45
2022-12-28T03:30:34.663Z,13.18
2022-12-28T03:33:01.664Z,15.00
2022-12-28T03:35:37.488Z,14.55
2022-12-28T03:38:04.615Z,13.13
2022-12-28T03:40:46.794Z,12.65
2022-12-28T03:43:39.418Z,13.20
2022-12-28T03:46:17.856Z,12.77
2022-12-28T03:48:45.270Z,14.77
2022-12-28T03:51:14.431Z,14.77
2022-12-28T03:53:46.420Z,13.50
2022-12-28T03:56:19.130Z,15.27
2022-12-28T03:58:47.041Z,15.30
2022-12-28T04:01:13.565Z,15.90
2022-12-28T04:03:40.455Z,14.57
2022-12-28T04:06:07.693Z,13.40
2022-12-28T04:08:34.513Z,15.07
2022-12-28T04:11:01.930Z,13.47
2022-12-28T04:13:30.663Z,15.32
2022-12-28T04:16:06.091Z,13.38
2022-12-28T04:18:33.694Z,14.23
2022-12-28T04:21:01.063Z,14.25
2022-12-28T04:23:28.038Z,12.83
2022-12-28T04:26:05.736Z,13.18
2022-12-28T04:28:33.432Z,14.02
2022-12-28T04:31:01.128Z,13.38
2022-12-28T04:33:28.112Z,11.30
2022-12-28T04:35:54.821Z,14.27
2022-12-28T04:38:21.470Z,12.02
2022-12-28T04:40:47.846Z,14.32
2022-12-28T04:43:14.218Z,11.85
2022-12-28T04:45:40.612Z,13.23
2022-12-28T04:48:06.984Z,11.37
2022-12-28T04:50:33.406Z,10.65
2022-12-28T04:53:00.199Z,13.88
2022-12-28T04:55:32.091Z,12.88
2022-12-28T04:57:59.512Z,10.38
2022-12-28T05:00:26.017Z,13.77
2022-12-28T05:02:52.510Z,11.55
2022-12-28T05:05:18.925Z,10.23
2022-12-28T05:07:45.319Z,10.20
2022-12-28T05:10:11.678Z,10.45
2022-12-28T05:12:38.114Z,9.40
2022-12-28T05:15:05.580Z,10.00
2022-12-28T05:17:32.022Z,11.10
2022-12-28T05:19:58.409Z,9.35
2022-12-28T05:22:24.821Z,13.63
2022-12-28T05:24:51.213Z,11.57
2022-12-28T05:27:17.575Z,12.90
2022-12-28T05:29:43.978Z,10.45
2022-12-28T05:32:10.388Z,11.35
2022-12-28T05:34:36.797Z,9.88
2022-12-28T05:37:03.237Z,10.13
2022-12-28T05:39:29.613Z,9.25
2022-12-28T05:42:00.015Z,8.63
2022-12-28T05:44:27.190Z,11.60
2022-12-28T05:46:53.690Z,10.20
2022-12-28T05:49:20.161Z,9.93
2022-12-28T05:51:49.691Z,10.15
2022-12-28T05:54:16.060Z,8.60
2022-12-28T05:56:42.413Z,11.20
2022-12-28T05:59:08.971Z,9.35
2022-12-28T06:01:38.873Z,9.67
2022-12-28T06:04:08.433Z,10.77
2022-12-28T06:06:36.100Z,9.57
2022-12-28T06:09:03.273Z,9.90
2022-12-28T06:11:30.445Z,10.02
2022-12-28T06:13:58.851Z,9.27
2022-12-28T06:16:28.307Z,10.57
2022-12-28T06:18:55.258Z,10.15
2022-12-28T06:21:27.455Z,8.48
2022-12-28T06:23:57.562Z,8.63
2022-12-28T06:26:24.881Z,7.63
2022-12-28T06:28:51.310Z,7.00
2022-12-28T06:31:26.003Z,8.40
2022-12-28T06:33:54.265Z,7.50
2022-12-28T06:36:23.120Z,8.20
2022-12-28T06:38:50.761Z,8.83
2022-12-28T06:41:18.931Z,8.15
2022-12-28T06:43:46.184Z,7.85
2022-12-28T06:46:13.615Z,11.82
2022-12-28T06:48:40.609Z,9.60
2022-12-28T06:51:13.227Z,9.57
2022-12-28T06:53:39.908Z,7.72
2022-12-28T06:56:10.241Z,8.75
2022-12-28T06:58:36.678Z,10.80
2022-12-28T07:01:12.243Z,8.13
2022-12-28T07:03:38.834Z,9.60
2022-12-28T07:06:06.162Z,9.65
2022-12-28T07:08:33.355Z,9.68
2022-12-28T07:11:07.528Z,11.63
2022-12-28T07:13:34.802Z,10.52
2022-12-28T07:16:02.820Z,10.37
2022-12-28T07:18:29.292Z,11.10
2022-12-28T07:21:04.698Z,9.90
2022-12-28T07:23:31.460Z,10.10
2022-12-28T07:26:03.785Z,10.85
2022-12-28T07:28:30.114Z,9.03
2022-12-28T07:30:56.536Z,9.82
2022-12-28T07:33:22.909Z,11.82
2022-12-28T07:35:49.274Z,10.55
2022-12-28T07:38:21.145Z,11.27
2022-12-28T07:40:47.852Z,9.93
2022-12-28T07:43:14.221Z,8.50
2022-12-28T07:45:40.599Z,9.55
2022-12-28T07:48:06.980Z,11.55
2022-12-28T07:50:37.833Z,10.90
2022-12-28T07:53:04.579Z,9.93
2022-12-28T07:55:31.973Z,11.48
2022-12-28T07:57:58.344Z,9.27
2022-12-28T08:00:24.735Z,8.68
2022-12-28T08:02:51.119Z,10.00
2022-12-28T08:05:17.485Z,10.20
2022-12-28T08:07:43.831Z,7.72
2022-12-28T08:10:10.276Z,8.88
2022-12-28T08:12:36.696Z,10.77
2022-12-28T08:15:03.399Z,7.85
2022-12-28T08:17:29.815Z,7.33
2022-12-28T08:19:57.841Z,7.68
2022-12-28T08:22:24.581Z,7.85
2022-12-28T08:24:51.406Z,8.90
2022-12-28T08:27:17.761Z,6.78
2022-12-28T08:29:44.796Z,8.03
2022-12-28T08:32:11.237Z,8.20
2022-12-28T08:34:37.605Z,8.82
2022-12-28T08:37:04.029Z,7.93
2022-12-28T08:39:30.401Z,9.05
2022-12-28T08:41:57.225Z,9.00
2022-12-28T08:44:23.582Z,7.20
2022-12-28T08:46:50.063Z,8.25
2022-12-28T08:49:16.529Z,7.95
2022-12-28T08:51:42.967Z,7.38
2022-12-28T08:54:12.038Z,6.70
2022-12-28T08:56:39.967Z,7.65
2022-12-28T08:59:06.681Z,9.90
2022-12-28T09:01:42.491Z,7.80
2022-12-28T09:04:19.208Z,9.23
2022-12-28T09:06:46.140Z,7.13
2022-12-28T09:09:15.267Z,8.52
2022-12-28T09:11:42.248Z,8.10
2022-12-28T09:14:12.038Z,7.72
2022-12-28T09:16:42.056Z,6.05
2022-12-28T09:19:11.687Z,5.97
2022-12-28T09:21:39.190Z,6.93
2022-12-28T09:24:06.208Z,5.75
2022-12-28T09:26:36.149Z,6.25
2022-12-28T09:29:04.988Z,7.25
2022-12-28T09:31:33.571Z,6.90
2022-12-28T09:36:48.955Z,6.72
2022-12-28T09:39:18.052Z,7.70
2022-12-28T09:42:02.913Z,6.60
2022-12-28T09:44:56.845Z,5.73
2022-12-28T09:47:25.988Z,4.88
2022-12-28T09:50:07.448Z,8.25
2022-12-28T09:52:49.506Z,6.72
2022-12-28T09:55:18.646Z,6.55
2022-12-28T09:57:49.451Z,9.13
2022-12-28T10:00:25.488Z,7.15
2022-12-28T10:02:57.257Z,7.40
2022-12-28T10:05:23.968Z,8.07
2022-12-28T10:07:51.834Z,5.95
2022-12-28T10:10:21.878Z,6.53
2022-12-28T10:12:50.534Z,6.25
2022-12-28T10:15:17.531Z,5.80
2022-12-28T10:17:45.202Z,8.13
2022-12-28T10:20:17.249Z,6.43
2022-12-28T10:22:49.875Z,7.97
2022-12-28T10:25:24.979Z,9.20
2022-12-28T10:27:51.920Z,7.18
2022-12-28T10:30:27.098Z,7.30
2022-12-28T10:33:02.128Z,7.40
2022-12-28T10:35:38.153Z,7.73
2022-12-28T10:38:18.294Z,6.15
2022-12-28T10:40:45.351Z,9.90
2022-12-28T10:43:19.877Z,9.15
2022-12-28T10:45:49.299Z,8.80
2022-12-28T10:48:24.029Z,6.50
2022-12-28T10:51:00.250Z,8.13
2022-12-28T10:53:41.208Z,8.38
2022-12-28T10:56:13.689Z,6.68
2022-12-28T10:58:40.365Z,6.80
2022-12-28T11:01:17.957Z,6.37
2022-12-28T11:03:46.058Z,6.22
2022-12-28T11:06:26.415Z,6.50
2022-12-28T11:09:21.498Z,6.53
2022-12-28T11:11:49.769Z,7.05
2022-12-28T11:14:33.001Z,7.43
2022-12-28T11:17:15.323Z,8.43
2022-12-28T11:19:42.024Z,8.05
2022-12-28T11:22:13.434Z,7.43
2022-12-28T11:24:40.589Z,5.85
2022-12-28T11:27:13.405Z,6.97
2022-12-28T11:29:44.347Z,6.28
2022-12-28T11:32:23.247Z,6.57
2022-12-28T11:34:52.373Z,9.98
2022-12-28T11:37:18.735Z,8.27
2022-12-28T11:39:47.176Z,6.17
2022-12-28T11:42:39.606Z,6.82
2022-12-28T11:45:13.760Z,6.35
2022-12-28T11:47:40.157Z,5.60
2022-12-28T11:50:42.111Z,7.32
2022-12-28T11:53:42.825Z,7.43
2022-12-28T11:56:11.419Z,6.97
2022-12-28T11:58:40.783Z,10.50
2022-12-28T12:01:36.590Z,7.60
2022-12-28T12:04:05.755Z,8.85
2022-12-28T12:06:41.245Z,5.53
2022-12-28T12:09:25.912Z,7.47
2022-12-28T12:11:53.439Z,11.45
2022-12-28T12:14:23.825Z,6.80
2022-12-28T12:16:53.933Z,8.40
2022-12-28T12:19:25.626Z,4.50
2022-12-28T12:22:02.195Z,8.05
2022-12-28T12:25:02.582Z,11.05
2022-12-28T12:27:38.965Z,6.55
2022-12-28T12:30:12.728Z,5.32
2022-12-28T12:32:54.398Z,7.63
2022-12-28T12:35:27.063Z,5.30
2022-12-28T12:38:08.468Z,6.43
2022-12-28T12:40:59.922Z,6.22
2022-12-28T12:43:32.336Z,5.32
2022-12-28T12:46:10.982Z,5.93
2022-12-28T12:48:49.415Z,5.38
2022-12-28T12:51:18.818Z,5.20
2022-12-28T12:54:08.320Z,4.60
2022-12-28T12:56:44.902Z,6.50
2022-12-28T12:59:34.923Z,6.47
2022-12-28T13:02:28.737Z,5.35
2022-12-28T13:04:55.381Z,5.13
2022-12-28T13:07:25.957Z,4.35
2022-12-28T13:09:55.018Z,5.53
2022-12-28T13:12:23.438Z,6.47
2022-12-28T13:14:58.762Z,5.68
2022-12-28T13:17:26.498Z,5.05
2022-12-28T13:20:08.369Z,5.50
2022-12-28T13:22:34.772Z,5.93
2022-12-28T13:25:01.123Z,7.53
2022-12-28T13:27:33.896Z,6.22
2022-12-28T13:30:01.255Z,5.15
2022-12-28T13:32:34.221Z,5.00
2022-12-28T13:35:20.023Z,4.50
2022-12-28T13:38:02.839Z,5.50
2022-12-28T13:40:32.218Z,5.25
2022-12-28T13:43:07.356Z,7.07
2022-12-28T13:45:34.265Z,5.03
2022-12-28T13:48:01.971Z,5.68
2022-12-28T13:50:33.150Z,5.33
2022-12-28T13:53:12.036Z,5.20
2022-12-28T13:55:48.815Z,4.70
2022-12-28T13:58:20.024Z,4.53
2022-12-28T14:00:49.271Z,5.25
2022-12-28T14:03:17.093Z,5.40
2022-12-28T14:05:50.999Z,5.07
2022-12-28T14:08:17.969Z,4.03
2022-12-28T14:10:46.804Z,6.05
2022-12-28T14:13:13.750Z,4.53
2022-12-28T14:15:41.770Z,5.50
2022-12-28T14:18:08.554Z,4.63
2022-12-28T14:20:53.633Z,3.83
2022-12-28T14:23:24.414Z,4.82
2022-12-28T14:25:57.397Z,6.95
2022-12-28T14:28:45.643Z,3.63
2022-12-28T14:31:19.554Z,3.95
2022-12-28T14:33:52.975Z,4.97
2022-12-28T14:36:22.292Z,4.03
2022-12-28T14:38:51.920Z,5.72
2022-12-28T14:41:25.593Z,3.93
2022-12-28T14:43:55.587Z,7.15
2022-12-28T14:46:34.513Z,4.30
2022-12-28T14:49:29.880Z,4.10
2022-12-28T14:52:08.413Z,3.78
2022-12-28T14:54:51.362Z,6.23
2022-12-28T14:57:39.969Z,4.55
2022-12-28T15:00:31.925Z,4.85
2022-12-28T15:03:14.285Z,5.63
2022-12-28T15:05:48.444Z,4.18
2022-12-28T15:08:14.874Z,3.80
2022-12-28T15:10:57.291Z,5.22
2022-12-28T15:13:27.320Z,4.25
2022-12-28T15:15:54.671Z,5.25
2022-12-28T15:18:21.089Z,3.28
2022-12-28T15:20:47.453Z,6.17
2022-12-28T15:23:13.892Z,4.78
2022-12-28T15:25:40.234Z,3.88
2022-12-28T15:28:06.597Z,4.85
2022-12-28T15:30:33.119Z,4.13
2022-12-28T15:32:59.516Z,4.23
2022-12-28T15:35:25.997Z,6.25
2022-12-28T15:37:52.471Z,4.20
2022-12-28T15:40:18.933Z,4.60
2022-12-28T15:42:46.130Z,3.78
2022-12-28T15:45:13.761Z,4.50
2022-12-28T15:47:40.249Z,5.53
2022-12-28T15:50:07.156Z,4.38
2022-12-28T15:52:33.676Z,5.43
2022-12-28T15:55:00.144Z,4.22
2022-12-28T15:57:26.892Z,5.47
2022-12-28T15:59:54.692Z,4.75
2022-12-28T16:02:22.320Z,5.03
2022-12-28T16:04:49.136Z,4.00
2022-12-28T16:07:15.973Z,4.10
2022-12-28T16:09:42.364Z,6.23
2022-12-28T16:12:08.765Z,5.57
2022-12-28T16:14:35.224Z,4.40
2022-12-28T16:17:01.699Z,5.93
2022-12-28T16:19:28.098Z,5.10
2022-12-28T16:21:54.449Z,4.40
2022-12-28T16:24:20.874Z,4.75
2022-12-28T16:26:47.619Z,11.85
2022-12-28T16:29:14.143Z,5.45
2022-12-28T16:31:40.699Z,6.25
2022-12-28T16:34:15.143Z,9.63
2022-12-28T16:36:42.447Z,11.35
2022-12-28T16:39:12.796Z,6.45
2022-12-28T16:41:39.324Z,5.93
2022-12-28T16:44:12.285Z,10.98
2022-12-28T16:46:38.820Z,8.53
2022-12-28T16:49:05.196Z,7.53
2022-12-28T16:51:31.565Z,6.20
2022-12-28T16:53:58.053Z,6.47
2022-12-28T16:56:24.593Z,11.73
2022-12-28T16:58:55.622Z,4.97
2022-12-28T17:01:22.088Z,9.85
2022-12-28T17:03:48.540Z,6.93
2022-12-28T17:06:16.401Z,4.53
2022-12-28T17:08:42.889Z,12.13
2022-12-28T17:11:10.586Z,7.40
2022-12-28T17:13:38.063Z,8.98
2022-12-28T17:16:06.004Z,7.45
2022-12-28T17:18:32.747Z,5.32
2022-12-28T17:21:03.325Z,7.07
2022-12-28T17:23:33.044Z,12.63
2022-12-28T17:25:59.437Z,5.28
2022-12-28T17:28:25.876Z,5.72
2022-12-28T17:31:03.391Z,8.02
2022-12-28T17:33:32.783Z,16.88
2022-12-28T17:36:04.099Z,5.43
2022-12-28T17:38:30.910Z,5.57
2022-12-28T17:40:57.264Z,8.60
2022-12-28T17:43:23.695Z,5.65
2022-12-28T17:45:50.090Z,4.15
2022-12-28T17:48:16.580Z,4.00
2022-12-28T17:50:43.951Z,5.25
2022-12-28T17:53:10.480Z,6.68
2022-12-28T17:55:37.284Z,8.98
2022-12-28T17:58:04.160Z,6.88
2022-12-28T18:00:30.567Z,7.63
2022-12-28T18:02:57.148Z,10.70
2022-12-28T18:05:23.687Z,6.80
2022-12-28T18:07:50.038Z,5.13
2022-12-28T18:10:16.497Z,5.78
2022-12-28T18:12:42.865Z,3.00
2022-12-28T18:15:09.608Z,3.83
2022-12-28T18:17:35.969Z,4.03
2022-12-28T18:20:02.332Z,5.93
2022-12-28T18:22:28.843Z,3.90
2022-12-28T18:24:55.275Z,3.17
2022-12-28T18:27:21.761Z,3.95
2022-12-28T18:29:48.203Z,3.40
2022-12-28T18:32:14.570Z,4.82
2022-12-28T18:34:40.955Z,4.28
2022-12-28T18:37:07.861Z,3.20
2022-12-28T18:39:34.594Z,3.03
2022-12-28T18:42:02.361Z,3.03
2022-12-28T18:44:28.798Z,3.55
2022-12-28T18:46:55.258Z,5.18
2022-12-28T18:49:21.907Z,3.40
2022-12-28T18:51:48.328Z,4.45
2022-12-28T18:54:14.753Z,3.55
2022-12-28T18:56:41.139Z,4.07
2022-12-28T18:59:07.797Z,3.90
2022-12-28T19:04:23.229Z,4.47
2022-12-28T19:06:49.786Z,3.35
2022-12-28T19:09:16.359Z,4.28
2022-12-28T19:11:43.922Z,2.90
2022-12-28T19:14:13.257Z,3.77
2022-12-28T19:16:40.615Z,2.63
2022-12-28T19:19:07.046Z,3.42
2022-12-28T19:21:41.203Z,4.35
2022-12-28T19:24:12.287Z,2.70
2022-12-28T19:26:38.627Z,3.50
2022-12-28T19:29:05.532Z,3.25
2022-12-28T19:31:32.291Z,6.03
2022-12-28T19:33:59.255Z,2.20
2022-12-28T19:36:26.040Z,3.35
2022-12-28T19:38:56.925Z,2.80
2022-12-28T19:41:24.411Z,3.55
2022-12-28T19:43:51.424Z,3.05
2022-12-28T19:46:30.949Z,3.00
2022-12-28T19:48:59.341Z,3.65
2022-12-28T19:51:30.605Z,4.30
2022-12-28T19:53:58.100Z,4.63
2022-12-28T19:56:24.513Z,3.80
2022-12-28T19:58:50.882Z,3.70
2022-12-28T20:01:21.168Z,4.03
2022-12-28T20:03:48.189Z,2.80
2022-12-28T20:06:22.103Z,3.00
2022-12-28T20:08:50.527Z,3.35
2022-12-28T20:11:18.431Z,5.28
2022-12-28T20:13:52.677Z,3.72
2022-12-28T20:16:19.624Z,3.50
2022-12-28T20:18:47.419Z,5.13
2022-12-28T20:21:19.629Z,5.53
2022-12-28T20:23:48.028Z,4.57
2022-12-28T20:26:14.588Z,5.00
2022-12-28T20:28:40.972Z,5.70
2022-12-28T20:31:11.086Z,4.10
2022-12-28T20:33:38.076Z,3.13
2022-12-28T20:36:07.823Z,5.57
2022-12-28T20:38:34.959Z,4.28
2022-12-28T20:41:06.430Z,4.00
2022-12-28T20:43:33.785Z,3.85
2022-12-28T20:46:00.641Z,3.55
2022-12-28T20:48:27.387Z,4.68
2022-12-28T20:50:59.076Z,5.22
2022-12-28T20:53:26.650Z,4.50
2022-12-28T20:55:53.240Z,3.75
2022-12-28T20:58:20.556Z,4.95
2022-12-28T21:00:47.080Z,4.47
2022-12-28T21:03:14.000Z,3.63
2022-12-28T21:05:40.362Z,3.50
2022-12-28T21:08:06.727Z,3.90
2022-12-28T21:10:33.090Z,4.03
2022-12-28T21:12:59.509Z,5.20
2022-12-28T21:15:25.891Z,4.80
2022-12-28T21:17:52.318Z,3.53
2022-12-28T21:20:18.693Z,4.03
2022-12-28T21:22:45.057Z,3.85
2022-12-28T21:25:11.436Z,3.50
2022-12-28T21:27:37.789Z,4.93
2022-12-28T21:30:04.722Z,4.40
2022-12-28T21:32:31.121Z,3.85
2022-12-28T21:34:57.531Z,3.92
2022-12-28T21:37:35.698Z,6.63
2022-12-28T21:40:05.364Z,4.20
2022-12-28T21:42:32.027Z,5.30
2022-12-28T21:44:58.473Z,4.63
2022-12-28T21:47:25.763Z,5.75
2022-12-28T21:49:52.217Z,3.95
2022-12-28T21:52:18.594Z,4.35
2022-12-28T21:54:44.986Z,4.10
2022-12-28T21:57:12.368Z,6.18
2022-12-28T21:59:38.973Z,5.18
2022-12-28T22:02:35.725Z,3.60
2022-12-28T22:05:21.655Z,4.70
2022-12-28T22:07:49.236Z,5.50
2022-12-28T22:10:34.151Z,4.82
2022-12-28T22:13:00.532Z,4.60
2022-12-28T22:15:45.104Z,5.20
2022-12-28T22:19:00.442Z,4.90
2022-12-28T22:21:09.745Z,6.10
2022-12-28T22:23:36.132Z,4.15
2022-12-28T22:26:03.428Z,3.95
2022-12-28T22:28:29.905Z,3.97
2022-12-28T22:30:56.370Z,3.22
2022-12-28T22:33:22.763Z,5.00
2022-12-28T22:35:49.210Z,3.92
2022-12-28T22:38:15.589Z,3.80
2022-12-28T22:40:41.957Z,4.07
2022-12-28T22:43:08.338Z,4.18
2022-12-28T22:45:34.816Z,4.00
2022-12-28T22:48:01.273Z,3.08
2022-12-28T22:50:28.811Z,5.00
2022-12-28T22:52:55.828Z,5.68
2022-12-28T22:55:22.177Z,3.30
2022-12-28T22:57:48.550Z,3.23
2022-12-28T23:00:15.217Z,3.35
2022-12-28T23:02:42.998Z,3.58
2022-12-28T23:05:10.686Z,4.55
2022-12-28T23:07:38.535Z,4.95
2022-12-28T23:10:06.679Z,4.97
2022-12-28T23:12:33.671Z,3.60
2022-12-28T23:15:22.010Z,3.55
2022-12-28T23:17:49.034Z,3.67
2022-12-28T23:20:34.798Z,4.00
2022-12-28T23:23:19.993Z,3.47
2022-12-28T23:26:04.616Z,3.20
2022-12-28T23:28:31.065Z,3.50
2022-12-28T23:30:58.581Z,3.65
2022-12-28T23:33:25.038Z,3.10
2022-12-28T23:35:51.439Z,3.67
2022-12-28T23:38:18.007Z,5.80
2022-12-28T23:40:44.538Z,2.70
2022-12-28T23:43:10.974Z,3.15
2022-12-28T23:45:37.737Z,2.47
2022-12-28T23:48:05.047Z,4.43
2022-12-28T23:50:31.426Z,4.13
2022-12-28T23:52:57.811Z,3.45
2022-12-28T23:55:24.171Z,5.50
2022-12-28T23:57:50.570Z,4.43
